sensor_id;sensor_type;location;lat;lon;timestamp;pressure;altitude;pressure_sealevel;temperature;humidity
72612;BME280;60655;52.182;4.474;2023-09-19T00:01:56;100590.34;;;16.79;60.76
72612;BME280;60655;52.182;4.474;2023-09-19T00:03:57;100592.75;;;16.80;60.93
72612;BME280;60655;52.182;4.474;2023-09-19T00:05:59;100593.34;;;16.87;60.85
72612;BME280;60655;52.182;4.474;2023-09-19T00:08:01;100594.41;;;16.86;60.35
72612;BME280;60655;52.182;4.474;2023-09-19T00:10:05;100597.59;;;16.83;60.78
72612;BME280;60655;52.182;4.474;2023-09-19T00:12:07;100593.56;;;16.81;61.33
72612;BME280;60655;52.182;4.474;2023-09-19T00:14:09;100606.47;;;16.84;61.37
72612;BME280;60655;52.182;4.474;2023-09-19T00:16:14;100603.25;;;16.87;62.29
72612;BME280;60655;52.182;4.474;2023-09-19T00:18:17;100604.56;;;16.79;61.18
72612;BME280;60655;52.182;4.474;2023-09-19T00:20:19;100612.06;;;16.77;62.38
72612;BME280;60655;52.182;4.474;2023-09-19T00:22:22;100603.75;;;16.74;61.75
72612;BME280;60655;52.182;4.474;2023-09-19T00:24:23;100603.75;;;16.79;61.49
72612;BME280;60655;52.182;4.474;2023-09-19T00:26:24;100605.09;;;16.81;61.29
72612;BME280;60655;52.182;4.474;2023-09-19T00:28:25;100604.31;;;16.86;62.65
72612;BME280;60655;52.182;4.474;2023-09-19T00:30:26;100609.69;;;16.86;62.58
72612;BME280;60655;52.182;4.474;2023-09-19T00:32:27;100611.28;;;16.82;61.84
72612;BME280;60655;52.182;4.474;2023-09-19T00:34:32;100609.44;;;16.93;61.51
72612;BME280;60655;52.182;4.474;2023-09-19T00:36:35;100612.66;;;16.90;61.86
72612;BME280;60655;52.182;4.474;2023-09-19T00:38:36;100608.91;;;16.91;62.32
72612;BME280;60655;52.182;4.474;2023-09-19T00:40:37;100609.69;;;16.86;62.71
72612;BME280;60655;52.182;4.474;2023-09-19T00:42:39;100615.63;;;16.93;63.01
72612;BME280;60655;52.182;4.474;2023-09-19T00:44:41;100607.00;;;16.86;64.12
72612;BME280;60655;52.182;4.474;2023-09-19T00:46:42;100604.59;;;16.90;64.20
72612;BME280;60655;52.182;4.474;2023-09-19T00:48:43;100604.34;;;16.91;64.26
72612;BME280;60655;52.182;4.474;2023-09-19T00:50:45;100602.72;;;16.90;65.13
72612;BME280;60655;52.182;4.474;2023-09-19T00:52:49;100609.72;;;16.91;65.19
72612;BME280;60655;52.182;4.474;2023-09-19T00:54:51;100608.38;;;16.94;64.13
72612;BME280;60655;52.182;4.474;2023-09-19T00:56:52;100610.00;;;16.95;65.83
72612;BME280;60655;52.182;4.474;2023-09-19T00:58:55;100614.00;;;16.92;65.41
72612;BME280;60655;52.182;4.474;2023-09-19T01:00:56;100616.97;;;16.96;65.21
72612;BME280;60655;52.182;4.474;2023-09-19T01:02:58;100618.84;;;16.90;64.96
72612;BME280;60655;52.182;4.474;2023-09-19T01:04:59;100616.66;;;16.87;63.99
72612;BME280;60655;52.182;4.474;2023-09-19T01:07:05;100612.94;;;16.93;65.09
72612;BME280;60655;52.182;4.474;2023-09-19T01:09:06;100620.72;;;16.95;66.41
72612;BME280;60655;52.182;4.474;2023-09-19T01:11:30;100610.25;;;16.93;65.89
72612;BME280;60655;52.182;4.474;2023-09-19T01:13:47;100621.28;;;16.97;66.85
72612;BME280;60655;52.182;4.474;2023-09-19T01:17:57;100618.84;;;16.90;66.37
72612;BME280;60655;52.182;4.474;2023-09-19T01:20:19;100628.75;;;16.90;65.56
72612;BME280;60655;52.182;4.474;2023-09-19T01:25:07;100626.34;;;16.88;65.68
72612;BME280;60655;52.182;4.474;2023-09-19T01:27:31;100626.84;;;16.85;66.09
72612;BME280;60655;52.182;4.474;2023-09-19T01:29:47;100620.94;;;16.83;66.64
72612;BME280;60655;52.182;4.474;2023-09-19T01:31:49;100624.72;;;16.87;66.65
72612;BME280;60655;52.182;4.474;2023-09-19T01:33:56;100632.50;;;16.88;67.70
72612;BME280;60655;52.182;4.474;2023-09-19T01:35:58;100625.53;;;16.87;68.32
72612;BME280;60655;52.182;4.474;2023-09-19T01:37:59;100623.41;;;16.90;68.01
72612;BME280;60655;52.182;4.474;2023-09-19T01:40:02;100630.59;;;16.79;66.66
72612;BME280;60655;52.182;4.474;2023-09-19T01:42:35;100629.53;;;16.85;66.57
72612;BME280;60655;52.182;4.474;2023-09-19T01:44:51;100621.78;;;16.88;66.92
72612;BME280;60655;52.182;4.474;2023-09-19T01:46:58;100619.63;;;16.85;64.72
72612;BME280;60655;52.182;4.474;2023-09-19T01:49:22;100628.44;;;16.81;66.56
72612;BME280;60655;52.182;4.474;2023-09-19T01:51:44;100627.09;;;16.73;67.97
72612;BME280;60655;52.182;4.474;2023-09-19T01:54:11;100629.22;;;16.71;69.09
72612;BME280;60655;52.182;4.474;2023-09-19T01:56:15;100624.94;;;16.75;69.80
72612;BME280;60655;52.182;4.474;2023-09-19T01:58:29;100624.94;;;16.70;69.10
72612;BME280;60655;52.182;4.474;2023-09-19T02:00:36;100626.81;;;16.75;69.73
72612;BME280;60655;52.182;4.474;2023-09-19T02:02:40;100632.47;;;16.78;69.79
72612;BME280;60655;52.182;4.474;2023-09-19T02:04:43;100622.25;;;16.75;69.72
72612;BME280;60655;52.182;4.474;2023-09-19T02:06:44;100628.97;;;16.78;68.91
72612;BME280;60655;52.182;4.474;2023-09-19T02:08:48;100631.38;;;16.79;68.76
72612;BME280;60655;52.182;4.474;2023-09-19T02:10:50;100624.41;;;16.73;68.18
72612;BME280;60655;52.182;4.474;2023-09-19T02:12:51;100632.72;;;16.72;68.63
72612;BME280;60655;52.182;4.474;2023-09-19T02:14:52;100632.16;;;16.75;67.56
72612;BME280;60655;52.182;4.474;2023-09-19T02:16:52;100642.38;;;16.78;67.64
72612;BME280;60655;52.182;4.474;2023-09-19T02:18:54;100632.97;;;16.75;67.22
72612;BME280;60655;52.182;4.474;2023-09-19T02:20:55;100639.97;;;16.71;66.12
72612;BME280;60655;52.182;4.474;2023-09-19T02:22:56;100639.69;;;16.73;66.87
72612;BME280;60655;52.182;4.474;2023-09-19T02:24:57;100641.03;;;16.75;65.73
72612;BME280;60655;52.182;4.474;2023-09-19T02:27:01;100633.78;;;16.76;66.29
72612;BME280;60655;52.182;4.474;2023-09-19T02:29:05;100647.19;;;16.76;67.02
72612;BME280;60655;52.182;4.474;2023-09-19T02:31:05;100650.13;;;16.69;67.87
72612;BME280;60655;52.182;4.474;2023-09-19T02:33:06;100647.19;;;16.71;67.87
72612;BME280;60655;52.182;4.474;2023-09-19T02:35:09;100644.53;;;16.76;67.67
72612;BME280;60655;52.182;4.474;2023-09-19T02:37:11;100637.53;;;16.70;66.41
72612;BME280;60655;52.182;4.474;2023-09-19T02:39:14;100645.59;;;16.75;66.76
72612;BME280;60655;52.182;4.474;2023-09-19T02:41:15;100633.28;;;16.74;66.04
72612;BME280;60655;52.182;4.474;2023-09-19T02:43:16;100630.31;;;16.70;65.55
72612;BME280;60655;52.182;4.474;2023-09-19T02:45:18;100639.44;;;16.79;66.43
72612;BME280;60655;52.182;4.474;2023-09-19T02:47:19;100638.88;;;16.77;64.59
72612;BME280;60655;52.182;4.474;2023-09-19T02:49:20;100648.56;;;16.78;64.49
72612;BME280;60655;52.182;4.474;2023-09-19T02:51:21;100635.16;;;16.83;64.18
72612;BME280;60655;52.182;4.474;2023-09-19T02:53:22;100636.22;;;16.77;64.08
72612;BME280;60655;52.182;4.474;2023-09-19T02:55:24;100631.38;;;16.79;64.44
72612;BME280;60655;52.182;4.474;2023-09-19T02:57:25;100634.09;;;16.84;65.38
72612;BME280;60655;52.182;4.474;2023-09-19T02:59:26;100632.75;;;16.82;64.76
72612;BME280;60655;52.182;4.474;2023-09-19T03:01:29;100644.56;;;16.86;65.33
72612;BME280;60655;52.182;4.474;2023-09-19T03:03:30;100633.84;;;16.86;65.35
72612;BME280;60655;52.182;4.474;2023-09-19T03:05:31;100635.41;;;16.77;67.32
72612;BME280;60655;52.182;4.474;2023-09-19T03:07:33;100641.56;;;16.77;68.02
72612;BME280;60655;52.182;4.474;2023-09-19T03:09:35;100637.53;;;16.75;67.59
72612;BME280;60655;52.182;4.474;2023-09-19T03:11:35;100640.00;;;16.81;68.78
72612;BME280;60655;52.182;4.474;2023-09-19T03:13:37;100635.44;;;16.82;67.64
72612;BME280;60655;52.182;4.474;2023-09-19T03:15:41;100631.69;;;16.83;67.57
72612;BME280;60655;52.182;4.474;2023-09-19T03:17:46;100632.47;;;16.83;66.84
72612;BME280;60655;52.182;4.474;2023-09-19T03:19:48;100636.00;;;16.89;67.57
72612;BME280;60655;52.182;4.474;2023-09-19T03:21:49;100636.53;;;16.91;68.24
72612;BME280;60655;52.182;4.474;2023-09-19T03:23:51;100634.66;;;16.92;68.17
72612;BME280;60655;52.182;4.474;2023-09-19T03:25:52;100626.06;;;16.90;69.16
72612;BME280;60655;52.182;4.474;2023-09-19T03:27:53;100632.72;;;16.77;70.49
72612;BME280;60655;52.182;4.474;2023-09-19T03:29:58;100625.16;;;16.64;70.63
72612;BME280;60655;52.182;4.474;2023-09-19T03:31:59;100623.78;;;16.61;70.30
72612;BME280;60655;52.182;4.474;2023-09-19T03:34:00;100631.00;;;16.61;69.78
72612;BME280;60655;52.182;4.474;2023-09-19T03:36:02;100646.31;;;16.60;69.41
72612;BME280;60655;52.182;4.474;2023-09-19T03:38:06;100649.22;;;16.53;69.01
72612;BME280;60655;52.182;4.474;2023-09-19T03:40:08;100651.88;;;16.53;67.93
72612;BME280;60655;52.182;4.474;2023-09-19T03:42:11;100651.09;;;16.53;67.93
72612;BME280;60655;52.182;4.474;2023-09-19T03:44:11;100649.22;;;16.53;68.69
72612;BME280;60655;52.182;4.474;2023-09-19T03:46:12;100655.72;;;16.63;68.71
72612;BME280;60655;52.182;4.474;2023-09-19T03:48:15;100664.56;;;16.63;67.24
72612;BME280;60655;52.182;4.474;2023-09-19T03:50:16;100651.72;;;16.65;68.07
72612;BME280;60655;52.182;4.474;2023-09-19T03:52:18;100642.88;;;16.65;68.39
72612;BME280;60655;52.182;4.474;2023-09-19T03:54:19;100659.50;;;16.67;67.27
72612;BME280;60655;52.182;4.474;2023-09-19T03:56:20;100650.94;;;16.70;69.12
72612;BME280;60655;52.182;4.474;2023-09-19T03:58:21;100646.41;;;16.70;68.38
72612;BME280;60655;52.182;4.474;2023-09-19T04:00:22;100652.78;;;16.64;68.07
72612;BME280;60655;52.182;4.474;2023-09-19T04:02:24;100667.81;;;16.65;66.31
72612;BME280;60655;52.182;4.474;2023-09-19T04:04:25;100665.41;;;16.64;65.04
72612;BME280;60655;52.182;4.474;2023-09-19T04:06:26;100678.03;;;16.68;64.36
72612;BME280;60655;52.182;4.474;2023-09-19T04:08:28;100660.84;;;16.64;64.55
72612;BME280;60655;52.182;4.474;2023-09-19T04:10:30;100663.19;;;16.61;65.43
72612;BME280;60655;52.182;4.474;2023-09-19T04:12:31;100672.66;;;16.68;64.97
72612;BME280;60655;52.182;4.474;2023-09-19T04:14:33;100671.84;;;16.68;65.97
72612;BME280;60655;52.182;4.474;2023-09-19T04:16:33;100671.56;;;16.64;67.06
72612;BME280;60655;52.182;4.474;2023-09-19T04:18:34;100673.13;;;16.60;65.80
72612;BME280;60655;52.182;4.474;2023-09-19T04:20:38;100674.25;;;16.64;66.38
72612;BME280;60655;52.182;4.474;2023-09-19T04:22:39;100676.41;;;16.67;65.66
72612;BME280;60655;52.182;4.474;2023-09-19T04:24:40;100677.22;;;16.68;66.04
72612;BME280;60655;52.182;4.474;2023-09-19T04:26:41;100678.84;;;16.69;66.21
72612;BME280;60655;52.182;4.474;2023-09-19T04:28:43;100678.53;;;16.65;67.20
72612;BME280;60655;52.182;4.474;2023-09-19T04:30:44;100689.81;;;16.67;67.44
72612;BME280;60655;52.182;4.474;2023-09-19T04:32:45;100686.59;;;16.65;67.96
72612;BME280;60655;52.182;4.474;2023-09-19T04:34:51;100681.22;;;16.65;68.10
72612;BME280;60655;52.182;4.474;2023-09-19T04:36:52;100678.53;;;16.65;68.18
72612;BME280;60655;52.182;4.474;2023-09-19T04:38:53;100680.88;;;16.57;68.44
72612;BME280;60655;52.182;4.474;2023-09-19T04:40:57;100677.38;;;16.56;66.90
72612;BME280;60655;52.182;4.474;2023-09-19T04:43:00;100683.03;;;16.60;67.86
72612;BME280;60655;52.182;4.474;2023-09-19T04:45:01;100692.41;;;16.57;66.98
72612;BME280;60655;52.182;4.474;2023-09-19T04:47:01;100687.31;;;16.55;67.63
72612;BME280;60655;52.182;4.474;2023-09-19T04:49:02;100683.81;;;16.55;66.13
72612;BME280;60655;52.182;4.474;2023-09-19T04:51:04;100669.84;;;16.53;67.25
72612;BME280;60655;52.182;4.474;2023-09-19T04:53:04;100679.56;;;16.59;66.94
72612;BME280;60655;52.182;4.474;2023-09-19T04:55:06;100684.91;;;16.59;66.64
72612;BME280;60655;52.182;4.474;2023-09-19T04:57:07;100687.00;;;16.52;68.27
72612;BME280;60655;52.182;4.474;2023-09-19T04:59:08;100694.53;;;16.55;67.89
72612;BME280;60655;52.182;4.474;2023-09-19T05:01:11;100686.53;;;16.60;67.79
72612;BME280;60655;52.182;4.474;2023-09-19T05:03:13;100683.03;;;16.60;68.24
72612;BME280;60655;52.182;4.474;2023-09-19T05:05:14;100691.91;;;16.60;67.67
72612;BME280;60655;52.182;4.474;2023-09-19T05:07:17;100686.75;;;16.53;67.81
72612;BME280;60655;52.182;4.474;2023-09-19T05:09:18;100680.63;;;16.58;68.29
72612;BME280;60655;52.182;4.474;2023-09-19T05:11:20;100674.69;;;16.56;67.87
72612;BME280;60655;52.182;4.474;2023-09-19T05:13:23;100676.03;;;16.53;68.38
72612;BME280;60655;52.182;4.474;2023-09-19T05:15:24;100681.34;;;16.48;68.99
72612;BME280;60655;52.182;4.474;2023-09-19T05:17:26;100676.84;;;16.54;68.00
72612;BME280;60655;52.182;4.474;2023-09-19T05:19:27;100673.06;;;16.50;68.49
72612;BME280;60655;52.182;4.474;2023-09-19T05:21:29;100676.03;;;16.53;69.05
72612;BME280;60655;52.182;4.474;2023-09-19T05:23:31;100683.00;;;16.54;67.50
72612;BME280;60655;52.182;4.474;2023-09-19T05:25:34;100676.25;;;16.47;67.62
72612;BME280;60655;52.182;4.474;2023-09-19T05:27:38;100681.59;;;16.47;66.73
72612;BME280;60655;52.182;4.474;2023-09-19T05:29:39;100686.97;;;16.47;66.50
72612;BME280;60655;52.182;4.474;2023-09-19T05:31:40;100682.16;;;16.49;66.41
72612;BME280;60655;52.182;4.474;2023-09-19T05:33:43;100686.97;;;16.47;66.51
72612;BME280;60655;52.182;4.474;2023-09-19T05:35:44;100685.66;;;16.44;67.45
72612;BME280;60655;52.182;4.474;2023-09-19T05:37:49;100683.78;;;16.45;66.08
72612;BME280;60655;52.182;4.474;2023-09-19T05:39:51;100668.16;;;16.37;66.73
72612;BME280;60655;52.182;4.474;2023-09-19T05:41:54;100686.16;;;16.46;67.05
72612;BME280;60655;52.182;4.474;2023-09-19T05:43:57;100691.81;;;16.50;67.33
72612;BME280;60655;52.182;4.474;2023-09-19T05:46:00;100702.59;;;16.55;68.29
72612;BME280;60655;52.182;4.474;2023-09-19T05:48:27;100696.41;;;16.54;68.92
72612;BME280;60655;52.182;4.474;2023-09-19T05:50:28;100698.00;;;16.50;68.18
72612;BME280;60655;52.182;4.474;2023-09-19T05:52:29;100704.72;;;16.53;68.13
72612;BME280;60655;52.182;4.474;2023-09-19T05:54:30;100701.78;;;16.54;68.21
72612;BME280;60655;52.182;4.474;2023-09-19T05:56:31;100697.19;;;16.50;68.56
72612;BME280;60655;52.182;4.474;2023-09-19T05:58:32;100695.91;;;16.58;69.01
72612;BME280;60655;52.182;4.474;2023-09-19T06:00:33;100696.16;;;16.56;69.37
72612;BME280;60655;52.182;4.474;2023-09-19T06:02:35;100694.31;;;16.62;69.72
72612;BME280;60655;52.182;4.474;2023-09-19T06:04:36;100691.91;;;16.60;70.76
72612;BME280;60655;52.182;4.474;2023-09-19T06:06:41;100699.69;;;16.62;71.38
72612;BME280;60655;52.182;4.474;2023-09-19T06:08:42;100705.38;;;16.65;71.15
72612;BME280;60655;52.182;4.474;2023-09-19T06:10:46;100698.13;;;16.66;69.35
72612;BME280;60655;52.182;4.474;2023-09-19T06:12:47;100698.13;;;16.66;69.30
72612;BME280;60655;52.182;4.474;2023-09-19T06:14:48;100701.38;;;16.68;67.40
72612;BME280;60655;52.182;4.474;2023-09-19T06:16:50;100695.75;;;16.69;66.76
72612;BME280;60655;52.182;4.474;2023-09-19T06:18:51;100708.91;;;16.76;68.02
72612;BME280;60655;52.182;4.474;2023-09-19T06:20:53;100714.56;;;16.79;68.45
72612;BME280;60655;52.182;4.474;2023-09-19T06:22:55;100710.00;;;16.80;68.36
72612;BME280;60655;52.182;4.474;2023-09-19T06:24:56;100712.69;;;16.80;67.78
72612;BME280;60655;52.182;4.474;2023-09-19T06:26:57;100715.09;;;16.81;66.93
72612;BME280;60655;52.182;4.474;2023-09-19T06:28:58;100716.69;;;16.77;67.04
72612;BME280;60655;52.182;4.474;2023-09-19T06:31:02;100721.25;;;16.77;66.83
72612;BME280;60655;52.182;4.474;2023-09-19T06:33:03;100716.97;;;16.81;66.60
72612;BME280;60655;52.182;4.474;2023-09-19T06:35:05;100723.41;;;16.80;64.93
72612;BME280;60655;52.182;4.474;2023-09-19T06:37:09;100716.22;;;16.85;65.16
72612;BME280;60655;52.182;4.474;2023-09-19T06:39:10;100724.78;;;16.82;65.70
72612;BME280;60655;52.182;4.474;2023-09-19T06:41:11;100722.66;;;16.90;66.87
72612;BME280;60655;52.182;4.474;2023-09-19T06:43:14;100730.16;;;16.87;66.95
72612;BME280;60655;52.182;4.474;2023-09-19T06:45:15;100725.06;;;16.86;66.62
72612;BME280;60655;52.182;4.474;2023-09-19T06:47:19;100718.38;;;16.88;66.72
72612;BME280;60655;52.182;4.474;2023-09-19T06:49:21;100732.88;;;16.93;66.73
72612;BME280;60655;52.182;4.474;2023-09-19T06:51:22;100719.19;;;16.89;67.55
72612;BME280;60655;52.182;4.474;2023-09-19T06:53:23;100725.41;;;17.00;67.06
72612;BME280;60655;52.182;4.474;2023-09-19T06:55:25;100722.19;;;16.98;67.77
72612;BME280;60655;52.182;4.474;2023-09-19T06:57:28;100736.69;;;17.02;66.96
72612;BME280;60655;52.182;4.474;2023-09-19T06:59:31;100724.91;;;17.03;65.88
72612;BME280;60655;52.182;4.474;2023-09-19T07:01:33;100730.78;;;17.00;65.71
72612;BME280;60655;52.182;4.474;2023-09-19T07:03:34;100728.09;;;17.05;65.52
72612;BME280;60655;52.182;4.474;2023-09-19T07:05:38;100728.66;;;17.07;65.41
72612;BME280;60655;52.182;4.474;2023-09-19T07:07:43;100725.97;;;17.02;65.59
72612;BME280;60655;52.182;4.474;2023-09-19T07:09:44;100729.47;;;17.02;65.29
72612;BME280;60655;52.182;4.474;2023-09-19T07:11:45;100720.34;;;17.03;65.41
72612;BME280;60655;52.182;4.474;2023-09-19T07:13:48;100729.19;;;17.09;65.39
72612;BME280;60655;52.182;4.474;2023-09-19T07:15:49;100727.34;;;17.14;65.07
72612;BME280;60655;52.182;4.474;2023-09-19T07:17:51;100718.78;;;17.17;65.09
72612;BME280;60655;52.182;4.474;2023-09-19T07:19:54;100727.38;;;17.19;64.23
72612;BME280;60655;52.182;4.474;2023-09-19T07:21:55;100728.19;;;17.20;64.57
72612;BME280;60655;52.182;4.474;2023-09-19T07:23:55;100723.38;;;17.22;65.00
72612;BME280;60655;52.182;4.474;2023-09-19T07:25:57;100727.13;;;17.26;62.60
72612;BME280;60655;52.182;4.474;2023-09-19T07:27:59;100723.09;;;17.24;62.77
72612;BME280;60655;52.182;4.474;2023-09-19T07:30:00;100730.63;;;17.27;63.59
72612;BME280;60655;52.182;4.474;2023-09-19T07:32:01;100737.34;;;17.29;64.91
72612;BME280;60655;52.182;4.474;2023-09-19T07:34:02;100733.59;;;17.35;65.15
72612;BME280;60655;52.182;4.474;2023-09-19T07:36:04;100729.84;;;17.36;65.03
72612;BME280;60655;52.182;4.474;2023-09-19T07:38:07;100731.72;;;17.36;63.84
72612;BME280;60655;52.182;4.474;2023-09-19T07:40:09;100729.84;;;17.36;65.09
72612;BME280;60655;52.182;4.474;2023-09-19T07:42:10;100742.47;;;17.36;65.19
72612;BME280;60655;52.182;4.474;2023-09-19T07:44:12;100738.41;;;17.23;67.80
72612;BME280;60655;52.182;4.474;2023-09-19T07:46:13;100744.88;;;17.27;69.74
72612;BME280;60655;52.182;4.474;2023-09-19T07:48:14;100752.13;;;17.27;71.52
72612;BME280;60655;52.182;4.474;2023-09-19T07:50:16;100737.84;;;17.21;73.04
72612;BME280;60655;52.182;4.474;2023-09-19T07:52:19;100743.22;;;17.21;74.84
72612;BME280;60655;52.182;4.474;2023-09-19T07:54:22;100749.94;;;17.24;75.63
72612;BME280;60655;52.182;4.474;2023-09-19T07:56:23;100734.09;;;17.22;76.91
72612;BME280;60655;52.182;4.474;2023-09-19T07:58:24;100712.84;;;17.15;76.91
72612;BME280;60655;52.182;4.474;2023-09-19T08:00:25;100722.84;;;17.35;77.18
72612;BME280;60655;52.182;4.474;2023-09-19T08:02:26;100718.56;;;17.34;77.44
72612;BME280;60655;52.182;4.474;2023-09-19T08:04:29;100720.50;;;17.49;76.95
72612;BME280;60655;52.182;4.474;2023-09-19T08:06:31;100712.69;;;17.47;77.30
72612;BME280;60655;52.182;4.474;2023-09-19T08:08:32;100703.84;;;17.47;77.30
72612;BME280;60655;52.182;4.474;2023-09-19T08:10:35;100710.81;;;17.48;77.03
72612;BME280;60655;52.182;4.474;2023-09-19T08:12:36;100703.28;;;17.40;77.00
72612;BME280;60655;52.182;4.474;2023-09-19T08:14:37;100706.50;;;17.42;77.42
72612;BME280;60655;52.182;4.474;2023-09-19T08:16:38;100704.06;;;17.40;77.08
72612;BME280;60655;52.182;4.474;2023-09-19T08:18:39;100705.69;;;17.36;76.95
72612;BME280;60655;52.182;4.474;2023-09-19T08:20:40;100705.13;;;17.34;77.21
72612;BME280;60655;52.182;4.474;2023-09-19T08:22:46;100698.41;;;17.27;77.79
72612;BME280;60655;52.182;4.474;2023-09-19T08:24:48;100702.47;;;17.39;77.26
72612;BME280;60655;52.182;4.474;2023-09-19T08:26:49;100703.81;;;17.42;77.81
72612;BME280;60655;52.182;4.474;2023-09-19T08:28:52;100711.63;;;17.48;77.11
72612;BME280;60655;52.182;4.474;2023-09-19T08:30:53;100714.28;;;17.43;77.14
72612;BME280;60655;52.182;4.474;2023-09-19T08:32:58;100712.09;;;17.25;77.40
72612;BME280;60655;52.182;4.474;2023-09-19T08:34:59;100727.41;;;17.25;77.75
72612;BME280;60655;52.182;4.474;2023-09-19T08:37:01;100730.34;;;17.23;77.61
72612;BME280;60655;52.182;4.474;2023-09-19T08:39:02;100710.72;;;17.17;77.78
72612;BME280;60655;52.182;4.474;2023-09-19T08:41:07;100716.31;;;17.11;77.96
72612;BME280;60655;52.182;4.474;2023-09-19T08:43:08;100706.91;;;17.03;78.23
72612;BME280;60655;52.182;4.474;2023-09-19T08:45:09;100714.19;;;17.13;77.85
72612;BME280;60655;52.182;4.474;2023-09-19T08:47:15;100715.03;;;17.18;78.18
72612;BME280;60655;52.182;4.474;2023-09-19T08:49:24;100714.72;;;17.15;78.96
72612;BME280;60655;52.182;4.474;2023-09-19T08:51:41;100727.03;;;17.06;78.88
72612;BME280;60655;52.182;4.474;2023-09-19T08:53:54;100725.72;;;17.03;79.08
72612;BME280;60655;52.182;4.474;2023-09-19T08:56:00;100727.28;;;17.04;79.25
72612;BME280;60655;52.182;4.474;2023-09-19T08:58:06;100725.97;;;17.02;79.77
72612;BME280;60655;52.182;4.474;2023-09-19T09:00:11;100726.53;;;17.14;79.50
72612;BME280;60655;52.182;4.474;2023-09-19T09:02:16;100733.78;;;17.13;79.67
72612;BME280;60655;52.182;4.474;2023-09-19T09:04:20;100719.78;;;17.01;80.03
72612;BME280;60655;52.182;4.474;2023-09-19T09:06:24;100726.19;;;16.95;80.72
72612;BME280;60655;52.182;4.474;2023-09-19T09:08:25;100725.16;;;17.06;81.61
72612;BME280;60655;52.182;4.474;2023-09-19T09:10:26;100714.72;;;17.15;80.92
72612;BME280;60655;52.182;4.474;2023-09-19T09:12:29;100716.69;;;17.35;80.25
72612;BME280;60655;52.182;4.474;2023-09-19T09:14:30;100715.94;;;17.54;79.53
72612;BME280;60655;52.182;4.474;2023-09-19T09:16:31;100712.97;;;17.46;78.78
72612;BME280;60655;52.182;4.474;2023-09-19T09:18:33;100711.34;;;17.45;78.86
72612;BME280;60655;52.182;4.474;2023-09-19T09:20:34;100707.81;;;17.34;79.11
72612;BME280;60655;52.182;4.474;2023-09-19T09:22:34;100707.56;;;17.31;78.90
72612;BME280;60655;52.182;4.474;2023-09-19T09:24:37;100702.47;;;17.29;78.50
72612;BME280;60655;52.182;4.474;2023-09-19T09:26:51;100709.50;;;17.50;78.16
72612;BME280;60655;52.182;4.474;2023-09-19T09:28:53;100691.25;;;17.58;78.16
72612;BME280;60655;52.182;4.474;2023-09-19T09:30:57;100698.78;;;17.61;76.99
72612;BME280;60655;52.182;4.474;2023-09-19T09:33:12;100701.75;;;17.69;77.46
72612;BME280;60655;52.182;4.474;2023-09-19T09:35:14;100695.56;;;17.69;77.28
72612;BME280;60655;52.182;4.474;2023-09-19T09:37:17;100695.06;;;17.72;76.56
72612;BME280;60655;52.182;4.474;2023-09-19T09:39:30;100692.94;;;17.84;76.85
72612;BME280;60655;52.182;4.474;2023-09-19T09:41:38;100696.13;;;17.91;76.26
72612;BME280;60655;52.182;4.474;2023-09-19T09:43:40;100692.38;;;18.02;76.32
72612;BME280;60655;52.182;4.474;2023-09-19T09:45:42;100688.06;;;17.96;75.90
72612;BME280;60655;52.182;4.474;2023-09-19T09:47:49;100691.03;;;18.00;75.24
72612;BME280;60655;52.182;4.474;2023-09-19T09:49:59;100687.53;;;17.99;75.90
72612;BME280;60655;52.182;4.474;2023-09-19T09:52:07;100683.00;;;18.10;75.66
72612;BME280;60655;52.182;4.474;2023-09-19T09:54:18;100673.31;;;17.99;75.73
72612;BME280;60655;52.182;4.474;2023-09-19T09:56:22;100687.00;;;17.97;75.90
72612;BME280;60655;52.182;4.474;2023-09-19T09:58:23;100686.75;;;18.04;76.07
72612;BME280;60655;52.182;4.474;2023-09-19T10:00:29;100684.88;;;18.14;75.66
72612;BME280;60655;52.182;4.474;2023-09-19T10:02:43;100659.06;;;18.03;75.66
72612;BME280;60655;52.182;4.474;2023-09-19T10:04:47;100665.50;;;18.17;75.01
72612;BME280;60655;52.182;4.474;2023-09-19T10:07:08;100671.13;;;18.26;75.40
72612;BME280;60655;52.182;4.474;2023-09-19T10:09:11;100671.13;;;18.26;74.88
72612;BME280;60655;52.182;4.474;2023-09-19T10:11:17;100664.44;;;18.18;75.32
72612;BME280;60655;52.182;4.474;2023-09-19T10:13:20;100664.44;;;18.18;75.19
72612;BME280;60655;52.182;4.474;2023-09-19T10:15:26;100668.19;;;18.17;75.94
72612;BME280;60655;52.182;4.474;2023-09-19T10:17:34;100663.09;;;18.11;76.22
72612;BME280;60655;52.182;4.474;2023-09-19T10:19:42;100655.56;;;18.03;76.42
72612;BME280;60655;52.182;4.474;2023-09-19T10:21:47;100659.31;;;18.02;76.01
72612;BME280;60655;52.182;4.474;2023-09-19T10:23:50;100657.97;;;18.04;76.27
72612;BME280;60655;52.182;4.474;2023-09-19T10:25:53;100665.25;;;18.14;75.64
72612;BME280;60655;52.182;4.474;2023-09-19T10:27:54;100649.88;;;18.25;75.26
72612;BME280;60655;52.182;4.474;2023-09-19T10:29:57;100642.06;;;18.38;75.29
72612;BME280;60655;52.182;4.474;2023-09-19T10:32:01;100650.94;;;18.44;74.55
72612;BME280;60655;52.182;4.474;2023-09-19T10:34:05;100633.13;;;18.73;72.94
72612;BME280;60655;52.182;4.474;2023-09-19T10:36:08;100636.59;;;18.79;72.64
72612;BME280;60655;52.182;4.474;2023-09-19T10:38:15;100627.78;;;18.63;72.82
72612;BME280;60655;52.182;4.474;2023-09-19T10:40:20;100634.75;;;18.59;73.49
72612;BME280;60655;52.182;4.474;2023-09-19T10:42:23;100640.41;;;18.52;73.87
72612;BME280;60655;52.182;4.474;2023-09-19T10:44:32;100653.91;;;18.47;74.01
72612;BME280;60655;52.182;4.474;2023-09-19T10:46:33;100650.97;;;18.34;74.90
72612;BME280;60655;52.182;4.474;2023-09-19T10:48:34;100659.03;;;18.34;75.43
72612;BME280;60655;52.182;4.474;2023-09-19T10:51:02;100638.59;;;18.28;75.40